Time;durP1;ratioP1;P1;durP2;ratioP2;P2;SDS_P1;SDS_P2;PMS_P1;PMS_P2;Temp;Humidity;BMP_temperature;BMP_pressure;BME280_temperature;BME280_humidity;BME280_pressure;Samples;Min_cycle;Max_cycle;Signal;HPM_P1;HPM_P2
2022/08/04 00:00:06;;;;;;;2.40;2.00;;;;;;;26.47;44.12;98534.13;6918115;28;20229;-77
2022/08/04 00:03:29;;;;;;;3.10;2.20;;;;;;;25.86;46.24;98535.84;6918900;28;20695;-76
2022/08/04 00:06:59;;;;;;;2.23;2.07;;;;;;;25.85;46.36;98528.69;6918991;28;20362;-76
2022/08/04 00:10:22;;;;;;;3.07;2.40;;;;;;;25.70;47.04;98535.34;6918634;28;20270;-76
2022/08/04 00:13:47;;;;;;;2.70;2.00;;;;;;;25.93;46.34;98533.50;6934832;28;20215;-77
2022/08/04 00:17:09;;;;;;;2.40;2.20;;;;;;;25.69;46.86;98536.47;6976346;28;20183;-77
2022/08/04 00:20:33;;;;;;;2.67;2.47;;;;;;;25.87;46.23;98526.41;6952584;28;20208;-77
2022/08/04 00:23:55;;;;;;;4.10;2.23;;;;;;;25.84;46.39;98541.66;6945450;28;20586;-77
2022/08/04 00:27:18;;;;;;;2.70;2.10;;;;;;;25.64;46.70;98539.34;6945547;28;20737;-77
2022/08/04 00:30:41;;;;;;;4.83;2.70;;;;;;;25.64;46.67;98547.63;6946449;28;20214;-76
2022/08/04 00:34:03;;;;;;;3.07;2.10;;;;;;;25.63;46.72;98554.28;6945886;28;20268;-77
2022/08/04 00:37:25;;;;;;;4.07;2.00;;;;;;;25.65;46.63;98546.50;6945281;28;20357;-76
2022/08/04 00:40:52;;;;;;;2.87;2.13;;;;;;;25.55;45.90;98537.63;6945141;28;20345;-76
2022/08/04 00:44:31;;;;;;;2.20;2.00;;;;;;;25.72;45.96;98538.63;6950450;28;20305;-77
2022/08/04 00:48:03;;;;;;;2.13;1.97;;;;;;;25.58;46.37;98545.28;6949911;28;20411;-76
2022/08/04 00:51:35;;;;;;;6.97;2.87;;;;;;;25.58;46.63;98537.81;6950377;28;20300;-76
2022/08/04 00:55:06;;;;;;;3.10;2.27;;;;;;;24.76;48.52;98530.56;6950591;28;20208;-76
2022/08/04 00:58:42;;;;;;;2.83;2.23;;;;;;;24.62;49.74;98532.50;6950302;28;20215;-77
2022/08/04 01:02:13;;;;;;;5.47;2.30;;;;;;;24.50;49.88;98534.88;6950719;28;20302;-76
2022/08/04 01:05:43;;;;;;;2.47;2.20;;;;;;;24.59;49.81;98544.09;6950074;28;20227;-77
2022/08/04 01:09:24;;;;;;;2.37;2.17;;;;;;;24.49;49.95;98549.75;6950021;28;20698;-76
2022/08/04 01:13:06;;;;;;;4.90;2.40;;;;;;;24.45;49.56;98548.75;6950360;28;20271;-76
2022/08/04 01:16:27;;;;;;;3.27;2.20;;;;;;;24.82;48.60;98556.94;6950603;28;20196;-76
2022/08/04 01:20:01;;;;;;;2.10;1.90;;;;;;;25.03;47.47;98546.34;6949903;28;20308;-76
2022/08/04 01:23:40;;;;;;;2.03;1.70;;;;;;;25.25;46.33;98539.03;6950280;28;20288;-76
2022/08/04 01:27:03;;;;;;;3.67;1.80;;;;;;;25.33;45.99;98526.47;6950201;28;20199;-76
2022/08/04 01:30:27;;;;;;;2.90;2.10;;;;;;;25.33;46.41;98532.00;6948965;28;20570;-77
2022/08/04 01:33:50;;;;;;;2.47;2.27;;;;;;;24.77;48.16;98526.69;6949416;28;20264;-77
2022/08/04 01:37:19;;;;;;;4.53;2.33;;;;;;;24.73;48.07;98525.66;6949352;28;20292;-77
2022/08/04 01:40:41;;;;;;;2.30;2.10;;;;;;;24.43;49.86;98528.09;6949140;28;20282;-76
2022/08/04 01:44:04;;;;;;;3.70;2.47;;;;;;;24.38;49.43;98525.44;6949720;28;20723;-76
2022/08/04 01:47:29;;;;;;;2.53;2.27;;;;;;;24.29;49.93;98535.47;6949078;28;20215;-77
2022/08/04 01:50:52;;;;;;;3.90;2.07;;;;;;;24.20;49.97;98532.59;6948645;28;20249;-77
2022/08/04 01:54:15;;;;;;;5.13;2.30;;;;;;;24.68;48.52;98523.00;6948818;28;20318;-77
2022/08/04 01:57:42;;;;;;;1.93;1.80;;;;;;;24.81;48.15;98526.91;6948399;28;20312;-77
2022/08/04 02:01:05;;;;;;;2.50;2.23;;;;;;;24.78;47.71;98522.81;6949053;28;20194;-77
2022/08/04 02:04:28;;;;;;;2.43;2.10;;;;;;;23.94;49.58;98520.31;6949255;28;20356;-76
2022/08/04 02:08:26;;;;;;;3.77;2.13;;;;;;;23.80;50.27;98535.94;6948502;28;20332;-77
2022/08/04 02:11:57;;;;;;;2.30;2.10;;;;;;;24.24;50.03;98521.81;6938717;28;20361;-76
2022/08/04 02:15:27;;;;;;;2.40;2.13;;;;;;;24.34;49.14;98505.09;6948687;28;20733;-76
2022/08/04 02:19:01;;;;;;;2.93;2.30;;;;;;;24.15;49.58;98501.56;6948097;28;20188;-76
2022/08/04 02:22:25;;;;;;;3.33;2.30;;;;;;;24.00;50.75;98510.88;6948382;28;20755;-76
2022/08/04 02:25:49;;;;;;;3.30;2.20;;;;;;;23.89;50.31;98492.84;6947037;28;20676;-77
2022/08/04 02:29:14;;;;;;;2.50;2.13;;;;;;;24.22;50.11;98511.06;6948080;28;20235;-77
2022/08/04 02:32:38;;;;;;;2.40;2.20;;;;;;;24.44;48.99;98505.75;6948179;28;20361;-77
2022/08/04 02:36:02;;;;;;;2.40;2.00;;;;;;;24.16;49.98;98509.53;6948087;28;20214;-77
2022/08/04 02:39:30;;;;;;;3.30;2.10;;;;;;;24.45;49.12;98495.53;6947763;28;20345;-76
2022/08/04 02:42:53;;;;;;;2.60;2.03;;;;;;;24.45;49.04;98509.31;6947934;28;20710;-77
2022/08/04 02:46:17;;;;;;;2.20;2.10;;;;;;;24.62;48.39;98512.38;6947964;28;20344;-77
2022/08/04 02:49:40;;;;;;;2.37;1.97;;;;;;;24.14;49.63;98500.72;6947088;28;20319;-76
2022/08/04 02:53:03;;;;;;;2.60;2.20;;;;;;;23.99;49.62;98503.72;6947359;28;20239;-76
2022/08/04 02:56:28;;;;;;;2.23;2.00;;;;;;;23.65;51.13;98497.59;6947754;28;20303;-76
2022/08/04 03:00:06;;;;;;;2.73;2.40;;;;;;;23.58;51.93;98505.41;6947059;28;20287;-76
2022/08/04 03:03:35;;;;;;;5.37;2.10;;;;;;;23.91;50.25;98492.56;6947459;28;20229;-76
2022/08/04 03:07:27;;;;;;;1.80;1.70;;;;;;;24.03;50.33;98498.44;6946435;28;20245;-76
2022/08/04 03:11:05;;;;;;;2.73;2.40;;;;;;;23.87;50.48;98499.75;6946802;28;20292;-76
2022/08/04 03:15:09;;;;;;;2.77;1.93;;;;;;;24.21;49.68;98498.44;6947340;28;20796;-77
2022/08/04 03:19:00;;;;;;;2.00;1.90;;;;;;;24.23;48.68;98492.59;6924372;28;20362;-76
2022/08/04 03:22:48;;;;;;;2.87;2.20;;;;;;;23.10;51.96;98505.69;6929497;28;20310;-76
2022/08/04 03:26:43;;;;;;;2.53;2.20;;;;;;;23.50;51.63;98503.31;6945695;28;20247;-79
2022/08/04 03:30:08;;;;;;;3.47;2.27;;;;;;;23.61;51.78;98496.53;6945636;28;20264;-76
2022/08/04 03:33:42;;;;;;;3.17;2.30;;;;;;;23.76;51.13;98518.34;6947015;28;20234;-78
2022/08/04 03:37:49;;;;;;;2.30;2.10;;;;;;;23.82;50.46;98505.31;6948112;28;20245;-77
2022/08/04 03:41:27;;;;;;;2.70;2.20;;;;;;;23.99;49.82;98509.25;6948132;28;20247;-76
2022/08/04 03:45:21;;;;;;;2.60;2.10;;;;;;;24.00;49.80;98513.63;6948259;28;20541;-77
2022/08/04 03:48:58;;;;;;;3.67;2.47;;;;;;;23.70;50.47;98507.69;6947729;28;20284;-76
2022/08/04 03:56:34;;;;;;;2.53;2.00;;;;;;;23.82;50.09;98530.94;6947597;28;20195;-77
2022/08/04 04:00:14;;;;;;;4.27;2.50;;;;;;;23.38;51.81;98527.69;6946069;28;20341;-78
2022/08/04 04:03:52;;;;;;;3.53;2.23;;;;;;;23.40;51.66;98532.88;6946461;28;20750;-76
2022/08/04 04:07:57;;;;;;;3.00;1.97;;;;;;;23.53;50.89;98523.88;6947614;28;20217;-76
2022/08/04 04:11:43;;;;;;;2.20;2.10;;;;;;;22.97;52.31;98525.66;6946956;28;20817;-77
2022/08/04 04:15:25;;;;;;;2.50;2.27;;;;;;;23.36;51.85;98527.13;6911193;28;20213;-76
2022/08/04 04:19:10;;;;;;;2.57;2.37;;;;;;;23.57;51.15;98528.53;6951747;28;20609;-78
2022/08/04 04:22:57;;;;;;;2.73;2.30;;;;;;;23.72;50.72;98528.31;6952688;28;20229;-76
2022/08/04 04:26:34;;;;;;;2.87;2.30;;;;;;;23.73;50.60;98523.63;6951605;28;20192;-77
2022/08/04 04:30:03;;;;;;;8.07;2.20;;;;;;;22.98;52.49;98530.03;6951898;28;20703;-77
2022/08/04 04:33:35;;;;;;;2.83;2.10;;;;;;;23.46;51.80;98538.03;6952543;28;20314;-77
2022/08/04 04:37:09;;;;;;;2.60;2.40;;;;;;;23.18;51.98;98514.16;6952802;28;20242;-76
2022/08/04 04:40:41;;;;;;;4.53;2.30;;;;;;;23.52;51.82;98531.34;6951443;28;20202;-76
2022/08/04 04:44:31;;;;;;;3.13;2.47;;;;;;;23.55;51.41;98530.75;6952090;28;20215;-79
2022/08/04 04:47:58;;;;;;;3.40;2.20;;;;;;;23.81;50.93;98525.72;6951546;28;20229;-77
2022/08/04 04:51:24;;;;;;;3.03;2.53;;;;;;;23.83;50.44;98527.06;6951467;28;20261;-77
2022/08/04 04:54:56;;;;;;;4.80;2.00;;;;;;;23.94;50.65;98541.53;6952045;28;20200;-77
2022/08/04 04:58:18;;;;;;;2.63;2.30;;;;;;;24.25;49.35;98538.03;6950770;28;20231;-77
2022/08/04 05:01:54;;;;;;;2.53;2.33;;;;;;;23.92;50.04;98527.25;6951883;28;20265;-77
2022/08/04 05:05:39;;;;;;;3.50;2.80;;;;;;;23.73;50.49;98540.97;6952475;28;20712;-77
2022/08/04 05:09:12;;;;;;;3.27;2.30;;;;;;;23.55;51.19;98524.44;6920867;28;20231;-77
2022/08/04 05:12:47;;;;;;;2.60;2.40;;;;;;;23.85;51.52;98546.03;6924042;28;20227;-78
2022/08/04 05:16:15;;;;;;;2.87;2.30;;;;;;;24.02;50.63;98532.63;6950958;28;20824;-77
2022/08/04 05:19:45;;;;;;;3.47;2.40;;;;;;;24.33;50.62;98545.63;6950208;28;20612;-77
2022/08/04 05:23:11;;;;;;;4.90;2.70;;;;;;;24.86;48.86;98532.34;6951318;28;20313;-78
2022/08/04 05:26:37;;;;;;;2.67;2.43;;;;;;;24.99;48.24;98521.31;6950438;28;20230;-77
2022/08/04 05:30:03;;;;;;;2.60;2.40;;;;;;;25.60;47.23;98521.75;6949073;28;20776;-77
2022/08/04 05:33:27;;;;;;;3.90;2.30;;;;;;;26.10;45.99;98541.94;6952871;28;20215;-78
2022/08/04 05:36:52;;;;;;;2.60;2.40;;;;;;;27.11;43.55;98533.56;6951595;28;20212;-78
2022/08/04 05:40:14;;;;;;;5.00;2.37;;;;;;;27.65;41.29;98513.75;6950976;28;20696;-78
2022/08/04 05:43:37;;;;;;;4.90;2.47;;;;;;;27.34;42.38;98493.66;6951025;28;20231;-78
2022/08/04 05:47:01;;;;;;;4.20;2.13;;;;;;;27.79;41.20;98521.97;6949890;28;20205;-77
2022/08/04 05:50:23;;;;;;;3.70;2.57;;;;;;;28.02;40.77;98534.56;6948773;28;20291;-77
2022/08/04 05:53:46;;;;;;;2.53;2.20;;;;;;;28.60;39.51;98526.59;6950599;28;20262;-78
2022/08/04 05:57:08;;;;;;;3.50;2.37;;;;;;;29.74;37.95;98534.75;6950733;28;20204;-78
2022/08/04 06:00:30;;;;;;;2.43;2.20;;;;;;;29.90;37.95;98527.47;6949951;28;20267;-78
2022/08/04 06:03:54;;;;;;;2.30;2.03;;;;;;;30.29;36.20;98516.72;6950319;28;20277;-77
2022/08/04 06:07:16;;;;;;;2.30;2.07;;;;;;;30.51;35.73;98505.22;6951095;28;20722;-79
2022/08/04 06:10:38;;;;;;;2.27;1.97;;;;;;;30.92;34.80;98494.03;6950150;28;20638;-80
2022/08/04 06:14:03;;;;;;;2.13;2.03;;;;;;;31.56;33.27;98509.00;6950894;28;20361;-80
2022/08/04 06:17:30;;;;;;;2.70;1.80;;;;;;;31.26;33.31;98520.69;6951311;28;20222;-80
2022/08/04 06:20:54;;;;;;;2.20;2.00;;;;;;;31.30;32.93;98519.63;6950622;28;20351;-80
2022/08/04 06:24:20;;;;;;;1.93;1.80;;;;;;;32.04;31.83;98527.66;6949533;28;20230;-77
2022/08/04 06:27:42;;;;;;;1.80;1.70;;;;;;;32.26;31.53;98527.97;6949577;28;20291;-82
2022/08/04 06:31:06;;;;;;;2.50;2.30;;;;;;;32.04;31.69;98519.28;6948898;28;20254;-80
2022/08/04 06:34:28;;;;;;;2.80;1.97;;;;;;;32.07;31.61;98516.59;6949365;28;20237;-77
2022/08/04 06:37:53;;;;;;;7.70;2.97;;;;;;;32.26;31.34;98521.59;6949098;28;20235;-77
2022/08/04 06:41:15;;;;;;;4.20;2.57;;;;;;;32.13;30.99;98523.56;6950125;28;20237;-79
2022/08/04 06:44:37;;;;;;;5.60;2.33;;;;;;;32.16;31.19;98508.94;6950692;28;20272;-80
2022/08/04 06:48:00;;;;;;;2.30;2.10;;;;;;;32.48;30.31;98527.47;6949798;28;20203;-79
2022/08/04 06:51:22;;;;;;;3.57;2.10;;;;;;;31.49;32.46;98519.09;6951848;28;20230;-83
2022/08/04 06:54:45;;;;;;;3.87;2.00;;;;;;;31.58;31.75;98517.81;6952088;28;20250;-77
2022/08/04 06:58:07;;;;;;;2.00;1.70;;;;;;;32.39;31.13;98504.47;6950044;28;20198;-79
2022/08/04 07:01:30;;;;;;;2.37;2.00;;;;;;;33.26;29.56;98528.47;6949616;28;20215;-77
2022/08/04 07:04:52;;;;;;;4.53;2.10;;;;;;;34.04;28.26;98529.28;6949390;28;20229;-79
2022/08/04 07:11:55;;;;;;;2.30;1.93;;;;;;;34.10;27.91;98530.63;6939558;28;20601;-80
2022/08/04 07:15:18;;;;;;;5.57;1.90;;;;;;;34.57;27.10;98525.69;6948633;28;20249;-78
2022/08/04 07:18:39;;;;;;;2.27;2.07;;;;;;;34.53;27.07;98522.00;6965315;28;20267;-78
2022/08/04 07:22:01;;;;;;;4.57;2.10;;;;;;;34.80;26.87;98521.00;6974336;28;20227;-81
2022/08/04 07:25:23;;;;;;;2.10;1.90;;;;;;;35.26;26.52;98525.50;6956002;28;20196;-78
2022/08/04 07:28:46;;;;;;;2.80;2.10;;;;;;;35.04;26.01;98517.03;6948163;28;20203;-78
2022/08/04 07:32:09;;;;;;;2.50;1.63;;;;;;;35.24;26.09;98524.25;6949153;28;20227;-78
2022/08/04 07:35:31;;;;;;;1.93;1.83;;;;;;;35.77;25.31;98521.19;6953010;28;20204;-80
2022/08/04 07:38:53;;;;;;;1.87;1.77;;;;;;;35.81;25.47;98516.47;6963915;28;20206;-80
2022/08/04 07:42:18;;;;;;;2.63;1.80;;;;;;;35.64;25.52;98511.34;6947669;28;20591;-80
2022/08/04 07:45:41;;;;;;;3.07;1.80;;;;;;;35.99;25.26;98506.31;6948449;28;20220;-80
2022/08/04 07:49:02;;;;;;;2.17;1.70;;;;;;;36.24;25.12;98513.13;6948671;28;20645;-80
2022/08/04 07:52:25;;;;;;;2.33;1.73;;;;;;;36.38;24.33;98502.06;6947624;28;20242;-79
2022/08/04 07:55:46;;;;;;;3.97;1.80;;;;;;;36.72;24.43;98514.97;6948655;28;20269;-80
2022/08/04 07:59:08;;;;;;;2.93;1.70;;;;;;;36.95;23.56;98507.22;6947927;28;20286;-80
2022/08/04 08:02:31;;;;;;;3.30;1.80;;;;;;;35.92;24.84;98488.56;6948816;28;20250;-80
2022/08/04 08:05:53;;;;;;;5.17;1.90;;;;;;;36.90;23.91;98485.06;6947517;28;20211;-83
2022/08/04 08:09:18;;;;;;;2.30;1.70;;;;;;;36.88;24.16;98495.91;6938599;28;20699;-80
2022/08/04 08:12:40;;;;;;;4.87;1.80;;;;;;;37.53;23.05;98488.56;6950500;28;20239;-82
2022/08/04 08:16:02;;;;;;;2.23;1.93;;;;;;;37.82;22.66;98490.38;6949897;28;20203;-79
2022/08/04 08:19:25;;;;;;;1.87;1.77;;;;;;;37.89;23.07;98478.38;6944750;28;20204;-79
2022/08/04 08:22:47;;;;;;;1.90;1.80;;;;;;;37.91;22.84;98471.13;6960558;28;20219;-80
2022/08/04 08:26:08;;;;;;;3.73;1.80;;;;;;;38.32;22.00;98483.06;6952312;28;20332;-80
2022/08/04 08:29:30;;;;;;;3.87;1.80;;;;;;;38.03;22.49;98482.09;6947785;28;20238;-79
2022/08/04 08:32:52;;;;;;;2.70;1.90;;;;;;;37.91;22.33;98479.56;6947738;28;20225;-80
2022/08/04 08:36:19;;;;;;;3.60;2.00;;;;;;;38.36;22.40;98475.41;6948366;28;20232;-79
2022/08/04 08:39:54;;;;;;;2.00;1.90;;;;;;;38.77;21.77;98482.47;6948402;28;20206;-79
2022/08/04 08:43:45;;;;;;;3.22;2.28;;;;;;;39.16;21.92;98484.22;6948477;28;20221;-79
2022/08/04 08:47:18;;;;;;;3.92;2.15;;;;;;;38.74;21.54;98481.28;6931764;28;20202;-80
2022/08/04 08:51:10;;;;;;;3.58;2.00;;;;;;;37.92;21.99;98486.03;6947257;28;20653;-80
2022/08/04 08:54:47;;;;;;;2.50;1.75;;;;;;;39.10;21.45;98487.81;6948847;28;20242;-80
2022/08/04 08:58:23;;;;;;;4.27;2.10;;;;;;;39.53;20.95;98481.84;6948388;28;20274;-80
2022/08/04 09:02:07;;;;;;;1.95;1.85;;;;;;;39.63;20.77;98474.56;6949022;28;20238;-79
2022/08/04 09:05:43;;;;;;;1.90;1.80;;;;;;;40.00;20.74;98470.13;6953437;28;20194;-80
2022/08/04 09:09:18;;;;;;;1.90;1.70;;;;;;;38.48;21.91;98475.94;6942195;28;20656;-80
2022/08/04 09:12:46;;;;;;;2.07;1.97;;;;;;;37.50;23.09;98475.22;6953930;28;20227;-80
2022/08/04 09:16:11;;;;;;;2.00;1.90;;;;;;;39.28;21.67;98483.84;6953868;28;20191;-80
2022/08/04 09:19:36;;;;;;;1.95;1.85;;;;;;;39.31;20.28;98474.56;6953359;28;20271;-80
2022/08/04 09:23:06;;;;;;;2.10;1.90;;;;;;;39.77;20.53;98489.53;6958005;28;20254;-80
2022/08/04 09:26:32;;;;;;;2.13;1.70;;;;;;;40.26;20.09;98455.53;6953793;28;20191;-80
2022/08/04 09:30:02;;;;;;;3.10;2.08;;;;;;;41.19;18.75;98489.44;6953811;28;20476;-80
2022/08/04 09:33:31;;;;;;;2.25;2.05;;;;;;;40.30;19.27;98476.13;6954896;28;20234;-80
2022/08/04 09:36:57;;;;;;;3.33;1.92;;;;;;;40.60;19.15;98482.09;6967368;28;20576;-80
2022/08/04 09:40:21;;;;;;;2.10;1.90;;;;;;;41.07;18.56;98475.78;6952307;28;20192;-80
2022/08/04 09:43:51;;;;;;;3.08;1.85;;;;;;;42.04;17.58;98458.44;6952130;28;20223;-80
2022/08/04 09:47:19;;;;;;;2.70;1.88;;;;;;;41.79;17.68;98455.06;6952757;28;20698;-80
2022/08/04 09:50:44;;;;;;;2.17;1.98;;;;;;;42.02;17.35;98467.34;6951140;28;20258;-80
2022/08/04 09:54:10;;;;;;;1.85;1.75;;;;;;;41.52;17.57;98451.22;6951664;28;20249;-80
2022/08/04 09:57:41;;;;;;;2.25;2.10;;;;;;;40.98;18.71;98460.50;6951339;28;20192;-80
2022/08/04 10:01:06;;;;;;;4.30;1.90;;;;;;;41.72;17.38;98452.25;6952575;28;20241;-80
2022/08/04 10:04:31;;;;;;;2.22;2.03;;;;;;;42.47;16.35;98445.38;6952517;28;20501;-80
2022/08/04 10:08:07;;;;;;;3.78;2.03;;;;;;;41.55;17.29;98462.50;6952701;28;20207;-80
2022/08/04 10:11:45;;;;;;;3.00;2.05;;;;;;;41.67;17.94;98445.00;6952682;28;20251;-80
2022/08/04 10:15:11;;;;;;;2.17;2.00;;;;;;;42.18;16.71;98429.94;6953663;28;20237;-80
2022/08/04 10:18:45;;;;;;;4.13;2.10;;;;;;;41.39;17.63;98422.63;6952396;28;20210;-82
2022/08/04 10:22:15;;;;;;;2.38;2.10;;;;;;;41.39;17.35;98441.63;6954827;28;20249;-81
2022/08/04 10:25:52;;;;;;;2.20;2.00;;;;;;;41.86;17.24;98435.16;6954874;28;20612;-83
2022/08/04 10:29:18;;;;;;;1.98;1.88;;;;;;;42.04;17.07;98430.91;6952786;28;20242;-81
2022/08/04 10:32:42;;;;;;;2.38;2.17;;;;;;;41.30;17.23;98410.13;6955129;28;20223;-81
2022/08/04 10:36:06;;;;;;;2.17;1.88;;;;;;;41.95;16.89;98441.09;6957229;28;20206;-80
2022/08/04 10:39:36;;;;;;;2.58;2.00;;;;;;;41.45;17.15;98437.94;6953718;28;20570;-81
2022/08/04 10:43:01;;;;;;;2.08;1.90;;;;;;;42.09;16.24;98433.25;6952866;28;20290;-80
2022/08/04 10:46:26;;;;;;;2.63;1.92;;;;;;;41.53;16.71;98431.00;6946754;28;20210;-80
2022/08/04 10:49:51;;;;;;;3.13;1.90;;;;;;;42.54;16.75;98422.63;6945351;28;20672;-81
2022/08/04 10:53:18;;;;;;;3.55;1.90;;;;;;;42.26;15.75;98423.78;6951427;28;20235;-80
2022/08/04 10:56:46;;;;;;;2.38;2.20;;;;;;;41.39;15.82;98414.13;6952700;28;20192;-82
2022/08/04 11:00:11;;;;;;;1.98;1.77;;;;;;;39.02;18.60;98427.75;6952084;28;20197;-80
2022/08/04 11:03:38;;;;;;;5.00;2.20;;;;;;;39.77;17.02;98385.03;6955412;28;20307;-82
2022/08/04 11:07:00;;;;;;;5.88;3.30;;;;;;;39.90;17.72;98428.56;6977837;28;20212;-82
2022/08/04 11:10:23;;;;;;;4.20;3.53;;;;;;;40.78;17.15;98420.59;6970065;28;20238;-82
2022/08/04 11:13:49;;;;;;;2.80;2.10;;;;;;;40.51;17.76;98421.53;6952544;28;20642;-79
2022/08/04 11:17:16;;;;;;;3.33;1.90;;;;;;;42.06;16.27;98411.44;6951424;28;20251;-80
2022/08/04 11:20:47;;;;;;;2.65;2.15;;;;;;;41.94;15.73;98406.31;6952089;28;20203;-80
2022/08/04 11:24:14;;;;;;;2.10;1.90;;;;;;;41.81;16.68;98419.41;6953491;28;20223;-80
2022/08/04 11:27:43;;;;;;;2.05;1.95;;;;;;;42.04;15.78;98415.91;6957730;28;20253;-79
2022/08/04 11:31:11;;;;;;;2.00;1.88;;;;;;;42.03;15.87;98415.09;6960440;28;20671;-80
2022/08/04 11:34:34;;;;;;;2.20;2.00;;;;;;;42.75;14.80;98403.31;6948005;28;20313;-82
2022/08/04 11:38:01;;;;;;;2.50;1.95;;;;;;;43.59;14.63;98418.19;6948257;28;20238;-79
2022/08/04 11:41:29;;;;;;;3.33;1.98;;;;;;;43.59;14.53;98409.69;6949203;28;20682;-79
2022/08/04 11:44:52;;;;;;;2.55;1.90;;;;;;;44.04;14.46;98403.19;6948985;28;20687;-79
2022/08/04 11:48:19;;;;;;;2.17;2.08;;;;;;;43.14;14.77;98405.56;6948194;28;20720;-78
2022/08/04 11:51:43;;;;;;;1.90;1.80;;;;;;;43.02;14.90;98401.28;6948507;28;20338;-79
2022/08/04 11:55:08;;;;;;;2.13;2.00;;;;;;;43.50;14.37;98400.94;6948962;28;20298;-79
2022/08/04 11:58:31;;;;;;;2.70;1.60;;;;;;;42.60;14.31;98392.59;6948436;28;20245;-79
2022/08/04 12:02:06;;;;;;;2.17;1.98;;;;;;;43.18;14.51;98390.09;6948934;28;20224;-79
2022/08/04 12:05:32;;;;;;;1.98;1.88;;;;;;;39.20;17.15;98389.09;6948513;28;20289;-79
2022/08/04 12:09:03;;;;;;;3.17;1.98;;;;;;;40.13;16.57;98391.44;6948085;28;20730;-78
2022/08/04 12:12:28;;;;;;;1.90;1.80;;;;;;;40.25;16.12;98369.16;6948452;28;20235;-79
2022/08/04 12:15:57;;;;;;;2.20;1.77;;;;;;;40.38;16.07;98381.59;6948992;28;20803;-79
2022/08/04 12:19:22;;;;;;;2.47;1.95;;;;;;;40.22;16.49;98377.66;6934249;28;20252;-80
2022/08/04 12:22:48;;;;;;;1.55;1.45;;;;;;;41.75;15.49;98375.75;6938319;28;20274;-78
2022/08/04 12:26:15;;;;;;;2.78;2.00;;;;;;;42.52;14.53;98379.69;6948146;28;20431;-79
2022/08/04 12:29:37;;;;;;;2.10;1.90;;;;;;;42.28;15.26;98375.16;6948368;28;20198;-80
2022/08/04 12:33:03;;;;;;;2.78;1.80;;;;;;;42.20;15.77;98368.00;6948051;28;20238;-80
2022/08/04 12:36:30;;;;;;;4.35;2.03;;;;;;;41.64;15.49;98377.88;6932129;28;20208;-80
2022/08/04 12:39:53;;;;;;;1.98;1.88;;;;;;;42.03;15.19;98363.31;6953393;28;20285;-80
2022/08/04 12:43:19;;;;;;;3.95;2.60;;;;;;;42.48;15.39;98361.91;6953288;28;20349;-83
2022/08/04 12:46:46;;;;;;;2.20;2.00;;;;;;;42.70;15.11;98377.44;6953876;28;20211;-79
2022/08/04 12:50:09;;;;;;;2.92;2.00;;;;;;;43.61;14.23;98362.56;6953211;28;20206;-80
2022/08/04 12:53:35;;;;;;;3.25;1.98;;;;;;;43.80;14.26;98369.56;6953756;28;20227;-80
2022/08/04 12:56:59;;;;;;;2.28;2.08;;;;;;;43.50;14.30;98370.47;6953927;28;20270;-80
2022/08/04 13:00:27;;;;;;;4.05;1.83;;;;;;;42.40;14.19;98354.75;6953726;28;20231;-80
2022/08/04 13:03:52;;;;;;;1.85;1.70;;;;;;;43.77;13.66;98356.19;6951563;28;20227;-80
2022/08/04 13:07:16;;;;;;;2.05;1.85;;;;;;;43.14;15.20;98360.94;6952687;28;20702;-80
2022/08/04 13:10:40;;;;;;;4.40;2.20;;;;;;;42.99;14.19;98356.75;6953686;28;20246;-81
2022/08/04 13:14:03;;;;;;;3.88;2.00;;;;;;;43.09;14.24;98344.41;6954713;28;20228;-81
2022/08/04 13:17:25;;;;;;;2.15;2.03;;;;;;;41.11;16.31;98351.28;6955381;28;20335;-81
2022/08/04 13:20:46;;;;;;;3.53;2.30;;;;;;;41.37;16.03;98339.34;6953632;28;20302;-80
2022/08/04 13:24:12;;;;;;;2.13;1.98;;;;;;;41.75;15.86;98338.94;6931336;28;20250;-80
2022/08/04 13:27:38;;;;;;;2.35;2.15;;;;;;;42.23;15.32;98344.44;6924329;28;20219;-81
2022/08/04 13:31:02;;;;;;;4.82;2.10;;;;;;;41.88;16.08;98328.69;6923221;28;20232;-81
2022/08/04 13:34:24;;;;;;;4.72;2.10;;;;;;;41.77;15.80;98307.38;6941995;28;20222;-81
2022/08/04 13:37:46;;;;;;;3.15;2.30;;;;;;;41.20;15.96;98292.97;6951395;28;20253;-81
2022/08/04 13:41:08;;;;;;;2.08;1.98;;;;;;;42.38;15.20;98320.38;6951253;28;20207;-81
2022/08/04 13:44:33;;;;;;;2.30;2.20;;;;;;;41.84;15.41;98327.91;6951783;28;20236;-80
2022/08/04 13:48:00;;;;;;;2.83;2.20;;;;;;;41.97;15.91;98311.97;6937453;28;20274;-80
2022/08/04 13:51:23;;;;;;;2.92;2.08;;;;;;;41.77;15.42;98313.84;6933651;28;20223;-80
2022/08/04 13:54:47;;;;;;;2.13;1.98;;;;;;;41.24;16.28;98298.59;6951795;28;20298;-80
2022/08/04 13:58:10;;;;;;;2.17;1.98;;;;;;;42.57;15.24;98312.00;6951136;28;20241;-80
2022/08/04 14:01:32;;;;;;;3.85;1.85;;;;;;;42.25;15.32;98288.16;6951267;28;20284;-80
2022/08/04 14:04:57;;;;;;;3.88;2.00;;;;;;;41.59;15.86;98282.06;6951303;28;20249;-80
2022/08/04 14:08:25;;;;;;;2.78;2.13;;;;;;;41.66;15.99;98298.97;6946727;28;20196;-80
2022/08/04 14:11:48;;;;;;;2.03;1.92;;;;;;;41.23;16.33;98294.97;6923496;28;20251;-80
2022/08/04 14:15:29;;;;;;;3.13;2.00;;;;;;;42.00;15.83;98302.63;6927622;28;20223;-80
2022/08/04 14:18:58;;;;;;;4.45;2.10;;;;;;;41.80;16.25;98298.84;6951176;28;20219;-80
2022/08/04 14:22:35;;;;;;;3.10;1.98;;;;;;;41.19;15.89;98271.56;6951214;28;20502;-80
2022/08/04 14:25:57;;;;;;;4.72;2.00;;;;;;;41.07;16.15;98294.72;6951190;28;20199;-80
2022/08/04 14:29:19;;;;;;;3.97;2.30;;;;;;;40.75;16.65;98287.69;6950571;28;20250;-81
2022/08/04 14:32:54;;;;;;;2.40;2.17;;;;;;;40.99;16.47;98281.06;6943723;28;20714;-80
2022/08/04 14:36:16;;;;;;;2.50;2.00;;;;;;;41.02;16.77;98275.34;6951517;28;20342;-80
2022/08/04 14:39:41;;;;;;;3.17;2.17;;;;;;;40.96;16.66;98279.06;6951192;28;20258;-80
2022/08/04 14:43:03;;;;;;;3.97;1.83;;;;;;;41.94;16.21;98281.66;6951679;28;20215;-80
2022/08/04 14:46:27;;;;;;;4.13;2.30;;;;;;;42.26;15.95;98282.03;6951953;28;20293;-80
2022/08/04 14:49:55;;;;;;;2.30;2.05;;;;;;;42.18;16.33;98274.88;6951486;28;20348;-80
2022/08/04 14:53:18;;;;;;;4.80;2.25;;;;;;;41.70;15.71;98288.41;6951099;28;20230;-80
2022/08/04 14:56:42;;;;;;;3.25;2.40;;;;;;;41.66;16.04;98272.69;6951092;28;20199;-80
2022/08/04 15:00:04;;;;;;;3.35;2.05;;;;;;;41.54;15.98;98271.19;6944460;28;20290;-80
2022/08/04 15:03:27;;;;;;;3.95;2.30;;;;;;;41.58;16.18;98280.47;6949759;28;20227;-80
2022/08/04 15:06:49;;;;;;;3.08;2.28;;;;;;;41.47;16.55;98273.31;6943827;28;20210;-80
2022/08/04 15:10:11;;;;;;;3.80;2.10;;;;;;;41.56;16.03;98265.13;6949801;28;20207;-80
2022/08/04 15:13:35;;;;;;;2.10;2.00;;;;;;;41.62;16.42;98280.44;6947799;28;20314;-80
2022/08/04 15:16:57;;;;;;;2.95;2.20;;;;;;;41.60;16.22;98272.34;6948550;28;20300;-80
2022/08/04 15:20:19;;;;;;;2.80;2.08;;;;;;;41.60;16.06;98266.69;6948473;28;20734;-80
2022/08/04 15:23:41;;;;;;;2.70;2.47;;;;;;;41.99;16.24;98263.38;6945463;28;20246;-80
2022/08/04 15:27:03;;;;;;;2.85;2.40;;;;;;;41.76;16.12;98258.44;6949944;28;20226;-80
2022/08/04 15:30:30;;;;;;;4.03;2.10;;;;;;;42.02;16.32;98262.53;6930634;28;20196;-80
2022/08/04 15:33:54;;;;;;;2.20;2.10;;;;;;;41.69;16.37;98246.34;6922484;28;20235;-80
2022/08/04 15:37:19;;;;;;;3.33;2.25;;;;;;;41.86;16.09;98266.00;6923185;28;20238;-80
2022/08/04 15:40:47;;;;;;;3.05;2.25;;;;;;;41.88;15.55;98252.19;6929082;28;20210;-81
2022/08/04 15:44:38;;;;;;;3.42;2.40;;;;;;;41.23;16.43;98254.53;6922495;28;20700;-82
2022/08/04 15:48:34;;;;;;;2.53;2.30;;;;;;;41.99;15.81;98260.56;6922420;28;20188;-85
2022/08/04 15:51:59;;;;;;;3.42;2.25;;;;;;;41.03;16.02;98243.00;6925297;28;20234;-79
2022/08/04 15:55:31;;;;;;;2.50;2.30;;;;;;;40.98;16.42;98240.66;6948089;28;20194;-78
2022/08/04 15:58:54;;;;;;;5.40;1.88;;;;;;;41.41;16.28;98243.84;6941768;28;20217;-79
2022/08/04 16:02:45;;;;;;;2.47;2.10;;;;;;;41.59;15.94;98250.09;6947084;28;20230;-80
2022/08/04 16:06:46;;;;;;;2.25;2.05;;;;;;;41.43;16.61;98241.41;6940807;28;20238;-78
2022/08/04 16:10:38;;;;;;;7.72;3.33;;;;;;;40.84;16.61;98243.56;6946219;28;20207;-79
2022/08/04 16:14:08;;;;;;;3.22;2.13;;;;;;;40.24;17.27;98248.06;6955920;28;20307;-79
2022/08/04 16:17:40;;;;;;;5.63;3.42;;;;;;;40.95;16.70;98221.69;6938274;28;20245;-86
2022/08/04 16:21:03;;;;;;;10.65;4.40;;;;;;;41.18;17.17;98241.66;6930464;28;20290;-84
2022/08/04 16:24:30;;;;;;;2.95;2.60;;;;;;;40.95;16.80;98232.22;6930542;28;20307;-82
2022/08/04 16:27:52;;;;;;;6.55;4.03;;;;;;;40.80;17.11;98174.13;6930175;28;20505;-82